createdAt,value
2023-04-13T00:01:17.668Z,7.10
2023-04-13T00:03:46.200Z,6.90
2023-04-13T00:06:13.849Z,6.80
2023-04-13T00:08:43.733Z,6.60
2023-04-13T00:11:13.090Z,6.60
2023-04-13T00:13:47.861Z,6.40
2023-04-13T00:16:16.902Z,6.30
2023-04-13T00:18:45.277Z,6.30
2023-04-13T00:21:12.788Z,6.30
2023-04-13T00:23:40.874Z,6.40
2023-04-13T00:26:08.395Z,6.50
2023-04-13T00:28:35.892Z,6.50
2023-04-13T00:31:03.490Z,6.50
2023-04-13T00:33:31.217Z,6.40
2023-04-13T00:35:58.721Z,6.30
2023-04-13T00:38:27.479Z,6.20
2023-04-13T00:40:56.254Z,6.00
2023-04-13T00:43:24.070Z,5.90
2023-04-13T00:45:52.304Z,5.80
2023-04-13T00:48:19.932Z,5.70
2023-04-13T00:50:47.567Z,5.50
2023-04-13T00:53:16.228Z,5.50
2023-04-13T00:55:44.145Z,5.30
2023-04-13T00:58:13.658Z,5.20
2023-04-13T01:00:43.481Z,5.10
2023-04-13T01:03:13.152Z,5.00
2023-04-13T01:05:56.801Z,5.00
2023-04-13T01:08:32.218Z,4.90
2023-04-13T01:11:12.991Z,4.80
2023-04-13T01:14:07.988Z,4.80
2023-04-13T01:16:55.494Z,4.90
2023-04-13T01:20:10.655Z,4.90
2023-04-13T01:23:09.737Z,4.90
2023-04-13T01:25:53.324Z,5.10
2023-04-13T01:28:22.660Z,5.20
2023-04-13T01:30:53.993Z,5.50
2023-04-13T01:33:22.597Z,5.50
2023-04-13T01:35:51.448Z,5.60
2023-04-13T01:38:24.815Z,5.50
2023-04-13T01:40:52.782Z,5.50
2023-04-13T01:43:21.782Z,5.40
2023-04-13T01:46:10.248Z,5.40
2023-04-13T01:48:52.508Z,5.50
2023-04-13T01:51:32.404Z,5.60
2023-04-13T01:54:14.080Z,5.70
2023-04-13T01:56:42.292Z,5.80
2023-04-13T01:59:10.832Z,6.00
2023-04-13T02:01:39.488Z,6.20
2023-04-13T02:04:07.945Z,6.20
2023-04-13T02:06:37.410Z,6.30
2023-04-13T02:09:07.039Z,6.40
2023-04-13T02:11:36.885Z,6.40
2023-04-13T02:14:05.043Z,6.40
2023-04-13T02:16:32.632Z,6.50
2023-04-13T02:19:00.391Z,6.60
2023-04-13T02:21:28.435Z,6.60
2023-04-13T02:23:56.003Z,6.60
2023-04-13T02:26:23.788Z,6.70
2023-04-13T02:28:52.626Z,6.80
2023-04-13T02:31:20.796Z,6.90
2023-04-13T02:33:48.443Z,7.00
2023-04-13T02:36:17.650Z,7.00
2023-04-13T02:38:45.751Z,6.90
2023-04-13T02:41:13.304Z,7.10
2023-04-13T02:43:40.897Z,7.10
2023-04-13T02:46:09.015Z,7.10
2023-04-13T02:48:36.849Z,7.10
2023-04-13T02:51:04.633Z,7.10
2023-04-13T02:53:32.122Z,7.00
2023-04-13T02:56:00.074Z,7.00
2023-04-13T02:58:31.671Z,7.00
2023-04-13T03:00:59.441Z,7.00
2023-04-13T03:03:27.112Z,7.00
2023-04-13T03:05:54.640Z,6.90
2023-04-13T03:08:22.191Z,6.90
2023-04-13T03:10:49.817Z,6.80
2023-04-13T03:13:17.437Z,6.80
2023-04-13T03:15:46.775Z,6.80
2023-04-13T03:18:14.457Z,6.80
2023-04-13T03:20:42.010Z,6.70
2023-04-13T03:23:09.992Z,6.60
2023-04-13T03:25:37.666Z,6.80
2023-04-13T03:28:05.670Z,6.90
2023-04-13T03:30:33.139Z,7.00
2023-04-13T03:33:00.766Z,7.00
2023-04-13T03:35:28.521Z,6.90
2023-04-13T03:37:56.236Z,6.80
2023-04-13T03:40:23.796Z,6.70
2023-04-13T03:42:51.444Z,6.70
2023-04-13T03:45:19.090Z,6.60
2023-04-13T03:47:46.943Z,6.60
2023-04-13T03:50:14.875Z,6.70
2023-04-13T03:52:42.366Z,6.60
2023-04-13T03:55:10.285Z,6.80
2023-04-13T03:57:37.843Z,6.90
2023-04-13T04:00:11.302Z,6.90
2023-04-13T04:02:39.155Z,6.90
2023-04-13T04:05:07.256Z,6.90
2023-04-13T04:07:34.786Z,6.90
2023-04-13T04:10:02.330Z,6.90
2023-04-13T04:12:30.307Z,6.90
2023-04-13T04:14:57.843Z,6.80
2023-04-13T04:17:25.629Z,6.80
2023-04-13T04:19:53.327Z,6.80
2023-04-13T04:22:20.830Z,6.80
2023-04-13T04:24:48.299Z,6.80
2023-04-13T04:27:15.829Z,6.80
2023-04-13T04:29:49.356Z,6.80
2023-04-13T04:32:18.755Z,6.80
2023-04-13T04:34:47.209Z,6.80
2023-04-13T04:37:20.548Z,6.80
2023-04-13T04:39:49.049Z,6.70
2023-04-13T04:42:18.976Z,6.60
2023-04-13T04:44:50.042Z,6.60
2023-04-13T04:47:18.851Z,6.70
2023-04-13T04:49:46.405Z,6.70
2023-04-13T04:52:14.912Z,6.70
2023-04-13T04:54:42.459Z,6.80
2023-04-13T04:57:10.782Z,6.80
2023-04-13T04:59:39.014Z,6.80
2023-04-13T05:02:08.331Z,6.80
2023-04-13T05:04:35.916Z,6.80
2023-04-13T05:07:03.500Z,6.90
2023-04-13T05:09:31.257Z,6.90
2023-04-13T05:11:58.866Z,7.00
2023-04-13T05:14:26.531Z,7.20
2023-04-13T05:16:54.078Z,7.30
2023-04-13T05:19:21.548Z,7.40
2023-04-13T05:21:49.172Z,7.40
2023-04-13T05:24:16.683Z,7.50
2023-04-13T05:26:44.157Z,7.50
2023-04-13T05:29:12.159Z,7.50
2023-04-13T05:31:39.782Z,7.60
2023-04-13T05:34:07.297Z,7.60
2023-04-13T05:36:34.795Z,7.60
2023-04-13T05:39:02.936Z,7.60
2023-04-13T05:41:30.583Z,7.60
2023-04-13T05:43:58.058Z,7.50
2023-04-13T05:46:26.304Z,7.40
2023-04-13T05:48:53.839Z,7.40
2023-04-13T05:51:21.751Z,7.50
2023-04-13T05:53:49.186Z,7.60
2023-04-13T05:56:16.874Z,7.60
2023-04-13T05:58:44.603Z,7.50
2023-04-13T06:01:12.441Z,7.40
2023-04-13T06:03:40.220Z,7.50
2023-04-13T06:06:08.897Z,7.40
2023-04-13T06:08:36.475Z,7.30
2023-04-13T06:11:04.058Z,7.30
2023-04-13T06:13:31.976Z,7.30
2023-04-13T06:15:59.965Z,7.50
2023-04-13T06:18:28.080Z,7.40
2023-04-13T06:20:57.325Z,7.30
2023-04-13T06:23:24.905Z,7.30
2023-04-13T06:25:52.527Z,7.30
2023-04-13T06:28:20.021Z,7.30
2023-04-13T06:30:47.646Z,7.40
2023-04-13T06:33:15.713Z,7.70
2023-04-13T06:35:43.255Z,7.80
2023-04-13T06:38:11.977Z,7.70
2023-04-13T06:40:39.833Z,7.80
2023-04-13T06:43:13.508Z,7.80
2023-04-13T06:45:48.562Z,7.90
2023-04-13T06:48:16.225Z,8.00
2023-04-13T06:50:44.863Z,8.10
2023-04-13T06:53:12.386Z,8.00
2023-04-13T06:55:39.877Z,7.80
2023-04-13T06:58:07.502Z,7.70
2023-04-13T07:00:35.038Z,7.70
2023-04-13T07:03:02.627Z,8.00
2023-04-13T07:05:30.758Z,8.20
2023-04-13T07:07:58.480Z,8.20
2023-04-13T07:10:26.025Z,8.20
2023-04-13T07:12:53.604Z,8.10
2023-04-13T07:15:21.392Z,8.60
2023-04-13T07:17:49.519Z,9.10
2023-04-13T07:20:17.835Z,9.20
2023-04-13T07:22:45.333Z,9.20
2023-04-13T07:25:12.833Z,9.10
2023-04-13T07:27:40.720Z,9.10
2023-04-13T07:30:09.163Z,9.20
2023-04-13T07:32:36.853Z,9.00
2023-04-13T07:35:05.051Z,8.80
2023-04-13T07:37:32.623Z,8.80
2023-04-13T07:40:00.707Z,8.60
2023-04-13T07:42:35.731Z,8.70
2023-04-13T07:45:07.647Z,8.90
2023-04-13T07:47:35.394Z,8.80
2023-04-13T07:50:06.022Z,8.80
2023-04-13T07:52:34.083Z,8.90
2023-04-13T07:55:06.900Z,8.80
2023-04-13T07:57:35.168Z,9.00
2023-04-13T08:00:06.755Z,9.20
2023-04-13T08:02:34.511Z,9.40
2023-04-13T08:05:02.499Z,9.60
2023-04-13T08:07:30.167Z,9.70
2023-04-13T08:09:57.681Z,10.00
2023-04-13T08:12:25.169Z,9.90
2023-04-13T08:14:53.267Z,10.10
2023-04-13T08:17:21.977Z,10.20
2023-04-13T08:19:49.568Z,10.30
2023-04-13T08:22:17.066Z,10.10
2023-04-13T08:24:46.024Z,9.80
2023-04-13T08:27:13.582Z,9.40
2023-04-13T08:29:41.240Z,9.10
2023-04-13T08:32:08.838Z,9.20
2023-04-13T08:34:36.972Z,9.20
2023-04-13T08:37:04.933Z,9.20
2023-04-13T08:39:32.545Z,9.20
2023-04-13T08:42:02.060Z,9.40
2023-04-13T08:44:31.626Z,9.60
2023-04-13T08:47:00.865Z,9.90
2023-04-13T08:49:29.486Z,9.90
2023-04-13T08:52:00.485Z,9.70
2023-04-13T08:54:29.188Z,9.70
2023-04-13T08:56:57.973Z,9.70
2023-04-13T08:59:29.313Z,9.70
2023-04-13T09:01:58.541Z,9.80
2023-04-13T09:04:32.802Z,10.10
2023-04-13T09:07:01.699Z,10.10
2023-04-13T09:09:29.958Z,10.20
2023-04-13T09:11:57.672Z,10.40
2023-04-13T09:14:26.005Z,10.50
2023-04-13T09:16:53.868Z,10.50
2023-04-13T09:19:32.899Z,10.70
2023-04-13T09:22:01.214Z,10.90
2023-04-13T09:24:41.137Z,11.00
2023-04-13T09:27:20.462Z,10.80
2023-04-13T09:29:55.720Z,10.70
2023-04-13T09:32:28.449Z,10.50
2023-04-13T09:35:01.206Z,10.70
2023-04-13T09:37:28.706Z,10.70
2023-04-13T09:39:56.283Z,10.60
2023-04-13T09:42:24.177Z,10.60
2023-04-13T09:44:58.428Z,10.70
2023-04-13T09:47:35.406Z,10.80
2023-04-13T09:50:04.782Z,11.10
2023-04-13T09:52:32.922Z,11.30
2023-04-13T09:55:00.601Z,11.50
2023-04-13T09:57:30.156Z,11.20
2023-04-13T10:00:01.990Z,11.00
2023-04-13T10:02:30.333Z,11.10
2023-04-13T10:04:58.477Z,11.20
2023-04-13T10:07:30.238Z,11.20
2023-04-13T10:09:57.720Z,11.30
2023-04-13T10:12:27.284Z,11.50
2023-04-13T10:15:27.334Z,11.50
2023-04-13T10:18:10.232Z,11.40
2023-04-13T10:20:38.091Z,11.30
2023-04-13T10:23:06.914Z,11.30
2023-04-13T10:25:36.808Z,11.20
2023-04-13T10:28:06.113Z,11.20
2023-04-13T10:30:33.786Z,11.10
2023-04-13T10:33:09.950Z,11.20
2023-04-13T10:35:39.467Z,10.90
2023-04-13T10:38:11.932Z,10.90
2023-04-13T10:40:45.129Z,10.80
2023-04-13T10:43:12.900Z,10.80
2023-04-13T10:45:40.498Z,10.70
2023-04-13T10:48:08.068Z,10.60
2023-04-13T10:50:35.968Z,10.40
2023-04-13T10:53:06.939Z,10.30
2023-04-13T10:55:36.125Z,10.20
2023-04-13T10:58:14.954Z,10.20
2023-04-13T11:00:47.208Z,10.20
2023-04-13T11:03:16.975Z,10.10
2023-04-13T11:05:47.694Z,10.00
2023-04-13T11:08:21.192Z,9.90
2023-04-13T11:10:54.273Z,9.80
2023-04-13T11:13:25.353Z,9.70
2023-04-13T11:16:04.369Z,9.60
2023-04-13T11:18:32.743Z,9.60
2023-04-13T11:21:01.210Z,9.50
2023-04-13T11:23:28.742Z,9.40
2023-04-13T11:26:00.072Z,9.30
2023-04-13T11:28:44.081Z,9.20
2023-04-13T11:31:12.141Z,9.20
2023-04-13T11:33:40.805Z,9.20
2023-04-13T11:36:12.146Z,9.20
2023-04-13T11:38:41.826Z,9.00
2023-04-13T11:41:15.811Z,8.90
2023-04-13T11:43:48.985Z,8.80
2023-04-13T11:46:25.776Z,8.80
2023-04-13T11:48:55.373Z,8.60
2023-04-13T11:51:23.252Z,8.70
2023-04-13T11:53:53.401Z,8.70
2023-04-13T11:56:21.453Z,8.70
2023-04-13T11:58:53.339Z,8.80
2023-04-13T12:01:26.976Z,8.80
2023-04-13T12:06:44.503Z,8.90
2023-04-13T12:09:16.696Z,8.90
2023-04-13T12:11:50.369Z,8.90
2023-04-13T12:19:27.232Z,9.10
2023-04-13T12:21:57.456Z,9.10
2023-04-13T12:24:39.694Z,9.20
2023-04-13T12:29:39.584Z,9.20
2023-04-13T12:32:15.302Z,9.30
2023-04-13T12:34:44.134Z,9.40
2023-04-13T12:37:12.417Z,9.60
2023-04-13T12:39:39.969Z,9.90
2023-04-13T12:42:07.478Z,10.00
2023-04-13T12:44:34.960Z,10.20
2023-04-13T12:47:02.881Z,10.20
2023-04-13T12:49:30.532Z,10.30
2023-04-13T12:51:58.171Z,10.20
2023-04-13T12:54:25.954Z,10.10
2023-04-13T12:56:53.506Z,10.10
2023-04-13T12:59:23.392Z,10.10
2023-04-13T13:01:51.392Z,9.90
2023-04-13T13:04:18.920Z,9.70
2023-04-13T13:06:46.635Z,9.50
2023-04-13T13:09:14.120Z,9.50
2023-04-13T13:11:41.620Z,9.40
2023-04-13T13:14:11.166Z,9.40
2023-04-13T13:16:39.148Z,9.40
2023-04-13T13:19:06.863Z,9.50
2023-04-13T13:21:34.632Z,9.40
2023-04-13T13:24:02.206Z,9.30
2023-04-13T13:26:36.690Z,9.20
2023-04-13T13:29:18.206Z,9.20
2023-04-13T13:31:46.081Z,9.00
2023-04-13T13:34:13.643Z,8.90
2023-04-13T13:36:41.230Z,8.90
2023-04-13T13:39:08.820Z,8.90
2023-04-13T13:41:36.393Z,8.90
2023-04-13T13:44:03.859Z,8.90
2023-04-13T13:46:31.325Z,9.10
2023-04-13T13:48:59.088Z,9.20
2023-04-13T13:51:28.447Z,9.40
2023-04-13T13:53:56.008Z,9.50
2023-04-13T13:56:23.571Z,9.70
2023-04-13T13:58:51.105Z,9.90
2023-04-13T14:01:18.827Z,10.00
2023-04-13T14:03:46.700Z,10.10
2023-04-13T14:06:14.247Z,10.20
2023-04-13T14:08:41.775Z,10.20
2023-04-13T14:11:11.632Z,10.20
2023-04-13T14:13:39.315Z,10.20
2023-04-13T14:16:07.550Z,10.10
2023-04-13T14:18:35.118Z,10.20
2023-04-13T14:21:02.884Z,10.10
2023-04-13T14:23:31.120Z,10.00
2023-04-13T14:25:58.641Z,10.00
2023-04-13T14:28:26.269Z,9.90
2023-04-13T14:30:53.740Z,9.80
2023-04-13T14:33:21.223Z,9.80
2023-04-13T14:35:48.837Z,9.80
2023-04-13T14:38:16.987Z,9.70
2023-04-13T14:40:44.529Z,9.70
2023-04-13T14:43:11.994Z,9.60
2023-04-13T14:45:39.452Z,9.60
2023-04-13T14:48:07.143Z,9.70
2023-04-13T14:50:38.313Z,9.70
2023-04-13T14:53:07.933Z,9.70
2023-04-13T14:55:35.544Z,9.70
2023-04-13T14:58:03.538Z,9.70
2023-04-13T15:00:40.408Z,9.70
2023-04-13T15:03:15.092Z,9.70
2023-04-13T15:05:46.457Z,9.50
2023-04-13T15:08:16.906Z,9.40
2023-04-13T15:10:44.559Z,9.40
2023-04-13T15:13:12.287Z,9.30
2023-04-13T15:15:41.192Z,9.20
2023-04-13T15:18:09.329Z,9.10
2023-04-13T15:20:36.869Z,9.00
2023-04-13T15:23:04.547Z,9.00
2023-04-13T15:25:32.075Z,9.00
2023-04-13T15:27:59.796Z,8.90
2023-04-13T15:30:30.172Z,8.90
2023-04-13T15:33:02.529Z,8.90
2023-04-13T15:35:31.730Z,8.80
2023-04-13T15:38:05.560Z,8.70
2023-04-13T15:40:34.835Z,8.60
2023-04-13T15:43:03.649Z,8.40
2023-04-13T15:45:32.138Z,8.30
2023-04-13T15:47:59.749Z,8.30
2023-04-13T15:50:27.632Z,8.10
2023-04-13T15:52:55.107Z,8.00
2023-04-13T15:55:22.744Z,7.90
2023-04-13T15:57:50.911Z,7.80
2023-04-13T16:00:18.882Z,7.70
2023-04-13T16:02:46.660Z,7.70
2023-04-13T16:05:14.347Z,7.70
2023-04-13T16:07:41.880Z,7.70
2023-04-13T16:10:16.717Z,7.60
2023-04-13T16:12:45.540Z,7.50
2023-04-13T16:15:13.392Z,7.50
2023-04-13T16:17:44.099Z,7.50
2023-04-13T16:20:14.854Z,7.50
2023-04-13T16:22:47.146Z,7.40
2023-04-13T16:25:15.759Z,7.40
2023-04-13T16:27:43.869Z,7.40
2023-04-13T16:30:17.626Z,7.30
2023-04-13T16:32:46.649Z,7.30
2023-04-13T16:35:14.591Z,7.30
2023-04-13T16:37:43.256Z,7.30
2023-04-13T16:40:11.819Z,7.40
2023-04-13T16:42:40.761Z,7.40
2023-04-13T16:45:12.971Z,7.30
2023-04-13T16:47:42.265Z,7.40
2023-04-13T16:50:11.421Z,7.40
2023-04-13T16:52:40.149Z,7.40
2023-04-13T16:55:11.232Z,7.40
2023-04-13T16:57:38.819Z,7.40
2023-04-13T17:00:09.592Z,7.40
2023-04-13T17:02:42.157Z,7.30
2023-04-13T17:05:11.787Z,7.30
2023-04-13T17:07:43.827Z,7.30
2023-04-13T17:10:14.485Z,7.20
2023-04-13T17:12:42.127Z,7.30
2023-04-13T17:15:10.620Z,7.30
2023-04-13T17:17:38.680Z,7.20
2023-04-13T17:20:07.447Z,7.30
2023-04-13T17:22:35.292Z,7.30
2023-04-13T17:25:02.871Z,7.20
2023-04-13T17:27:30.923Z,7.30
2023-04-13T17:29:58.499Z,7.30
2023-04-13T17:32:26.284Z,7.30
2023-04-13T17:34:53.759Z,7.30
2023-04-13T17:37:21.295Z,7.20
2023-04-13T17:39:50.875Z,7.20
2023-04-13T17:42:19.041Z,7.20
2023-04-13T17:44:46.604Z,7.20
2023-04-13T17:47:14.486Z,7.20
2023-04-13T17:49:42.098Z,7.10
2023-04-13T17:52:09.713Z,7.10
2023-04-13T17:54:37.951Z,7.10
2023-04-13T17:57:07.497Z,7.00
2023-04-13T17:59:35.035Z,7.00
2023-04-13T18:02:02.953Z,6.90
2023-04-13T18:04:32.739Z,6.90
2023-04-13T18:07:00.554Z,6.90
2023-04-13T18:09:28.391Z,6.90
2023-04-13T18:11:55.944Z,6.80
2023-04-13T18:14:23.397Z,6.80
2023-04-13T18:16:51.204Z,6.80
2023-04-13T18:19:18.688Z,6.90
2023-04-13T18:21:46.277Z,6.90
2023-04-13T18:24:13.744Z,6.80
2023-04-13T18:26:41.405Z,6.80
2023-04-13T18:29:09.749Z,6.70
2023-04-13T18:31:37.317Z,6.70
2023-04-13T18:34:07.368Z,6.70
2023-04-13T18:36:35.004Z,6.70
2023-04-13T18:39:03.809Z,6.70
2023-04-13T18:41:31.953Z,6.70
2023-04-13T18:44:00.243Z,6.70
2023-04-13T18:46:28.084Z,6.70
2023-04-13T18:48:55.636Z,6.70
2023-04-13T18:51:23.161Z,6.70
2023-04-13T18:53:50.712Z,6.80
2023-04-13T18:56:18.188Z,6.70
2023-04-13T18:58:45.628Z,6.70
2023-04-13T19:01:17.756Z,6.70
2023-04-13T19:03:46.318Z,6.70
2023-04-13T19:06:14.095Z,6.70
2023-04-13T19:08:43.434Z,6.60
2023-04-13T19:11:11.000Z,6.60
2023-04-13T19:13:38.506Z,6.60
2023-04-13T19:16:07.037Z,6.60
2023-04-13T19:18:35.280Z,6.60
2023-04-13T19:21:03.040Z,6.50
2023-04-13T19:23:30.560Z,6.50
2023-04-13T19:25:58.010Z,6.50
2023-04-13T19:28:27.228Z,6.60
2023-04-13T19:30:55.332Z,6.70
2023-04-13T19:33:22.787Z,6.70
2023-04-13T19:35:50.539Z,6.70
2023-04-13T19:38:18.184Z,6.60
2023-04-13T19:40:45.673Z,6.60
2023-04-13T19:43:13.212Z,6.50
2023-04-13T19:45:40.915Z,6.40
2023-04-13T19:48:08.530Z,6.40
2023-04-13T19:50:36.491Z,6.40
2023-04-13T19:53:04.143Z,6.40
2023-04-13T19:55:32.016Z,6.40
2023-04-13T19:57:59.552Z,6.40
2023-04-13T20:00:28.237Z,6.40
2023-04-13T20:03:03.310Z,6.40
2023-04-13T20:05:31.266Z,6.40
2023-04-13T20:07:59.399Z,6.40
2023-04-13T20:10:28.145Z,6.40
2023-04-13T20:12:55.613Z,6.60
2023-04-13T20:15:23.084Z,6.60
2023-04-13T20:17:51.554Z,6.60
2023-04-13T20:20:21.858Z,6.70
2023-04-13T20:22:51.320Z,6.60
2023-04-13T20:25:18.749Z,6.60
2023-04-13T20:27:46.242Z,6.50
2023-04-13T20:30:14.125Z,6.60
2023-04-13T20:32:41.782Z,6.60
2023-04-13T20:35:13.595Z,6.60
2023-04-13T20:37:41.763Z,6.50
2023-04-13T20:40:12.479Z,6.60
2023-04-13T20:42:42.136Z,6.50
2023-04-13T20:45:14.953Z,6.50
2023-04-13T20:47:59.610Z,6.50
2023-04-13T20:50:27.674Z,6.50
2023-04-13T20:52:57.023Z,6.50
2023-04-13T20:55:24.776Z,6.50
2023-04-13T20:57:52.568Z,6.50
2023-04-13T21:00:23.737Z,6.50
2023-04-13T21:02:53.388Z,6.50
2023-04-13T21:05:23.973Z,6.50
2023-04-13T21:07:51.998Z,6.60
2023-04-13T21:10:19.512Z,6.50
2023-04-13T21:12:47.256Z,6.50
2023-04-13T21:15:15.315Z,6.50
2023-04-13T21:17:42.854Z,6.50
2023-04-13T21:20:11.818Z,6.40
2023-04-13T21:22:39.410Z,6.50
2023-04-13T21:25:07.376Z,6.50
2023-04-13T21:27:36.363Z,6.50
2023-04-13T21:30:04.210Z,6.40
2023-04-13T21:32:31.792Z,6.40
2023-04-13T21:35:00.671Z,6.40
2023-04-13T21:37:31.285Z,6.40
2023-04-13T21:40:00.943Z,6.40
2023-04-13T21:42:28.553Z,6.40
2023-04-13T21:44:57.393Z,6.40
2023-04-13T21:47:25.231Z,6.40
2023-04-13T21:49:52.911Z,6.40
2023-04-13T21:52:20.432Z,6.40
2023-04-13T21:54:50.245Z,6.40
2023-04-13T21:57:18.949Z,6.50
2023-04-13T21:59:46.499Z,6.50
2023-04-13T22:02:14.054Z,6.50
2023-04-13T22:04:41.686Z,6.50
2023-04-13T22:07:09.151Z,6.50
2023-04-13T22:09:36.655Z,6.50
2023-04-13T22:12:04.435Z,6.50
2023-04-13T22:14:31.999Z,6.50
2023-04-13T22:16:59.707Z,6.50
2023-04-13T22:19:27.249Z,6.50
2023-04-13T22:21:54.776Z,6.50
2023-04-13T22:24:22.370Z,6.50
2023-04-13T22:26:49.850Z,6.50
2023-04-13T22:29:17.404Z,6.50
2023-04-13T22:31:44.954Z,6.50
2023-04-13T22:34:12.613Z,6.50
2023-04-13T22:36:40.263Z,6.50
2023-04-13T22:39:07.731Z,6.50
2023-04-13T22:41:35.190Z,6.50
2023-04-13T22:44:03.263Z,6.50
2023-04-13T22:46:31.061Z,6.50
2023-04-13T22:48:58.884Z,6.50
2023-04-13T22:51:28.202Z,6.50
2023-04-13T22:53:56.479Z,6.50
2023-04-13T22:56:23.944Z,6.50
2023-04-13T22:58:51.929Z,6.50
2023-04-13T23:01:19.592Z,6.60
2023-04-13T23:03:47.385Z,6.50
2023-04-13T23:06:15.084Z,6.60
2023-04-13T23:08:42.544Z,6.60
2023-04-13T23:11:10.977Z,6.70
2023-04-13T23:13:38.493Z,6.70
2023-04-13T23:16:06.992Z,6.70
2023-04-13T23:18:34.541Z,6.80
2023-04-13T23:21:11.005Z,6.80
2023-04-13T23:23:39.490Z,6.70
2023-04-13T23:26:07.221Z,6.70
2023-04-13T23:28:34.857Z,6.70
2023-04-13T23:31:09.038Z,6.70
2023-04-13T23:33:36.768Z,6.70
2023-04-13T23:36:04.928Z,6.70
2023-04-13T23:38:33.097Z,6.70
2023-04-13T23:41:00.947Z,6.70
2023-04-13T23:43:28.581Z,6.70
2023-04-13T23:45:57.075Z,6.70
2023-04-13T23:48:26.372Z,6.70
2023-04-13T23:50:54.410Z,6.70
2023-04-13T23:53:21.868Z,6.70
2023-04-13T23:55:49.462Z,6.70
2023-04-13T23:58:17.035Z,6.70
